DIJ weather

Dijon-Bourgogne Airport
Dijon/Longvic, Bourgogne-Franche-Comté, France

Public forecast

Using degrees Celsius for public forecast. Weather courtesy of forecast.io.

Current aviation weather report (METAR) for Dijon-Bourgogne Airport

Retrieved 2019/12/15 20:30 UTC (8 minutes ago):

LFSD 152030Z AUTO 31002KT 6000 NSC 08/07 Q1010

Aviation forecast (TAF) for Dijon-Bourgogne Airport

Forecast is more than 12 hours old.

Retrieved 2015/06/01 00:11 UTC (5 years ago):

TAF LFSD 010600Z 0100/0124 CNL